地図

経路データ

SID SEASON NUMBER BASIN SUBBASIN NAME ISO_TIME NATURE LAT LON WMO_WIND WMO_PRES WMO_AGENCY TRACK_TYPE DIST2LAND LANDFALL IFLAG USA_AGENCY USA_ATCF_ID USA_LAT USA_LON USA_RECORD USA_STATUS USA_WIND USA_PRES USA_SSHS USA_R34_NE USA_R34_SE USA_R34_SW USA_R34_NW USA_R50_NE USA_R50_SE USA_R50_SW USA_R50_NW USA_R64_NE USA_R64_SE USA_R64_SW USA_R64_NW USA_POCI USA_ROCI USA_RMW USA_EYE TOKYO_LAT TOKYO_LON TOKYO_GRADE TOKYO_WIND TOKYO_PRES TOKYO_R50_DIR TOKYO_R50_LONG TOKYO_R50_SHORT TOKYO_R30_DIR TOKYO_R30_LONG TOKYO_R30_SHORT TOKYO_LAND CMA_LAT CMA_LON CMA_CAT CMA_WIND CMA_PRES HKO_LAT HKO_LON HKO_CAT HKO_WIND HKO_PRES NEWDELHI_LAT NEWDELHI_LON NEWDELHI_GRADE NEWDELHI_WIND NEWDELHI_PRES NEWDELHI_CI NEWDELHI_DP NEWDELHI_POCI REUNION_LAT REUNION_LON REUNION_TYPE REUNION_WIND REUNION_PRES REUNION_TNUM REUNION_CI REUNION_RMW REUNION_R34_NE REUNION_R34_SE REUNION_R34_SW REUNION_R34_NW REUNION_R50_NE REUNION_R50_SE REUNION_R50_SW REUNION_R50_NW REUNION_R64_NE REUNION_R64_SE REUNION_R64_SW REUNION_R64_NW BOM_LAT BOM_LON BOM_TYPE BOM_WIND BOM_PRES BOM_TNUM BOM_CI BOM_RMW BOM_R34_NE BOM_R34_SE BOM_R34_SW BOM_R34_NW BOM_R50_NE BOM_R50_SE BOM_R50_SW BOM_R50_NW BOM_R64_NE BOM_R64_SE BOM_R64_SW BOM_R64_NW BOM_ROCI BOM_POCI BOM_EYE BOM_POS_METHOD BOM_PRES_METHOD NADI_LAT NADI_LON NADI_CAT NADI_WIND NADI_PRES WELLINGTON_LAT WELLINGTON_LON WELLINGTON_WIND WELLINGTON_PRES DS824_LAT DS824_LON DS824_STAGE DS824_WIND DS824_PRES TD9636_LAT TD9636_LON TD9636_STAGE TD9636_WIND TD9636_PRES TD9635_LAT TD9635_LON TD9635_WIND TD9635_PRES TD9635_ROCI NEUMANN_LAT NEUMANN_LON NEUMANN_CLASS NEUMANN_WIND NEUMANN_PRES MLC_LAT MLC_LON MLC_CLASS MLC_WIND MLC_PRES USA_GUST BOM_GUST BOM_GUST_PER REUNION_GUST REUNION_GUST_PER USA_SEAHGT USA_SEARAD_NE USA_SEARAD_SE USA_SEARAD_SW USA_SEARAD_NW STORM_SPEED STORM_DIR
1957122N03154 1957 30 WP MM TRIX 1957-05-02 00:00:00 TS 3.28000 154.060 main 760 760 O_O______OOO__ jtwc_wp WP041957 3.30000 154.100 40 0 3.20000 153.900 3 48 993 3.30000 154.100 TC 40 3.30000 154.100 2 40 3.30000 154.100 40 993 240 8 55
1957122N03154 1957 30 WP MM TRIX 1957-05-02 03:00:00 TS 3.52049 154.398 main 796 796 P_P______PPP__ WP041957 3.53002 154.405 40 0 3.40757 154.357 3 53 991 3.53002 154.405 TC 40 3.60481 154.415 2 40 3.53002 154.405 40 992 240 8 51
1957122N03154 1957 30 WP MM TRIX 1957-05-02 06:00:00 TS 3.79519 154.703 990 tokyo main 841 841 OOO______OPO__ jtwc_wp WP041957 3.80000 154.700 40 0 3.70000 154.700 9 990 0 0 0 3.70000 154.700 3 58 990 3.80000 154.700 TC 40 3.90766 154.715 2 40 3.80000 154.700 40 992 240 8 42
1957122N03154 1957 30 WP MM TRIX 1957-05-02 09:00:00 TS 4.13053 154.949 main 880 880 PPP______PPP__ WP041957 4.13500 154.972 40 0 3.95753 154.935 9 990 0 0 4.12747 154.853 3 58 990 4.13500 154.972 TC 40 4.20666 154.982 2 40 4.13500 154.972 40 990 240 8 32
1957122N03154 1957 30 WP MM TRIX 1957-05-02 12:00:00 TS 4.49130 155.135 990 tokyo main 931 931 OOO______OOO__ jtwc_wp WP041957 4.50000 155.200 40 0 4.30000 155.100 9 990 0 0 0 4.60000 154.900 3 58 990 4.50000 155.200 TC 40 4.50000 155.200 2 40 4.50000 155.200 40 988 240 8 23
1957122N03154 1957 30 WP MM TRIX 1957-05-02 15:00:00 TS 4.87242 155.265 main 981 981 PPP______PPP__ WP041957 4.87999 155.380 40 0 4.76498 155.158 9 987 0 0 5.04498 154.935 3 63 989 4.87999 155.380 TC 40 4.78461 155.359 2 50 4.87999 155.380 40 986 270 8 18
1957122N03154 1957 30 WP MM TRIX 1957-05-02 18:00:00 TS 5.20873 155.361 985 tokyo main 1016 1016 OOO______OPO__ jtwc_wp WP041957 5.20000 155.500 40 0 5.20000 155.200 9 985 0 0 0 5.40000 155.000 4 68 988 5.20000 155.500 TC 40 5.05241 155.468 2 60 5.20000 155.500 40 985 300 6 20
1957122N03154 1957 30 WP MM TRIX 1957-05-02 21:00:00 TS 5.42108 155.462 main 1041 1041 PPP______PPP__ WP041957 5.38749 155.565 60 0 5.46000 155.342 9 982 0 0 5.61002 155.192 4 72 987 5.38749 155.565 TC 60 5.29401 155.543 2 70 5.38749 155.565 60 983 300 4 29
1957122N03154 1957 30 WP MM TRIX 1957-05-03 00:00:00 TS 5.55000 155.550 980 tokyo main 1066 1061 OOO______OOO__ jtwc_wp WP041957 5.50000 155.600 80 1 5.60000 155.500 9 980 0 0 0 5.70000 155.400 4 77 986 5.50000 155.600 TC 80 5.50000 155.600 3 80 5.50000 155.600 80 981 300 3 37
1957122N03154 1957 30 WP MM TRIX 1957-05-03 03:00:00 TS 5.63880 155.624 main 1066 1066 PPP______PPP__ WP041957 5.60000 155.650 80 1 5.67249 155.608 9 982 0 0 5.70749 155.515 4 77 987 5.60000 155.650 TC 80 5.65280 155.673 3 80 5.60000 155.650 80 982 300 2 40
1957122N03154 1957 30 WP MM TRIX 1957-05-03 06:00:00 TS 5.71208 155.688 985 tokyo main 1081 1081 OOO______OPO__ jtwc_wp WP041957 5.70000 155.700 80 1 5.70000 155.700 9 985 0 0 0 5.70000 155.600 4 77 989 5.70000 155.700 TC 80 5.77249 155.730 3 80 5.70000 155.700 80 984 300 2 37
1957122N03154 1957 30 WP MM TRIX 1957-05-03 09:00:00 TS 5.81766 155.761 main 1095 1095 PPP______PPP__ WP041957 5.84250 155.758 80 1 5.72000 155.815 9 987 0 0 5.77750 155.708 4 77 990 5.84250 155.758 TC 80 5.88093 155.773 3 80 5.84250 155.758 80 987 270 3 28
1957122N03154 1957 30 WP MM TRIX 1957-05-03 12:00:00 TS 5.95000 155.817 990 tokyo main 1116 1116 OOO______OOO__ jtwc_wp WP041957 6.00000 155.800 80 1 5.80000 155.900 9 990 0 0 0 5.90000 155.800 4 77 991 6.00000 155.800 TC 80 6.00000 155.800 4 80 6.00000 155.800 80 991 240 3 16
1957122N03154 1957 30 WP MM TRIX 1957-05-03 15:00:00 TS 6.10198 155.839 main 1126 1126 PPP______PPP__ WP041957 6.14250 155.808 80 1 6.02000 155.923 9 985 0 0 6.02000 155.872 4 87 986 6.14250 155.808 TC 80 6.14438 155.814 4 82 6.14250 155.808 80 986 270 3 0
1957122N03154 1957 30 WP MM TRIX 1957-05-03 18:00:00 TS 6.28417 155.836 980 tokyo main 1146 1146 OOO______OPO__ jtwc_wp WP041957 6.30000 155.800 80 1 6.30000 155.900 9 980 0 0 0 6.20000 155.900 5 97 981 6.30000 155.800 TC 80 6.30501 155.815 4 85 6.30000 155.800 80 981 300 4 0
1957122N03154 1957 30 WP MM TRIX 1957-05-03 21:00:00 TS 6.49385 155.831 main 1165 1165 PPP______PPP__ WP041957 6.48500 155.807 85 2 6.54249 155.872 9 977 0 0 6.47749 155.880 5 97 980 6.48500 155.807 TC 85 6.48813 155.808 4 87 6.48500 155.807 85 977 300 5 355
1957122N03154 1957 30 WP MM TRIX 1957-05-04 00:00:00 TS 6.73333 155.800 975 tokyo main 1185 1185 OOO______OOO__ jtwc_wp WP041957 6.70000 155.800 90 2 6.80000 155.800 9 975 0 0 0 6.80000 155.800 5 97 980 6.70000 155.800 TC 90 6.70000 155.800 4 90 6.70000 155.800 90 974 300 5 347
1957122N03154 1957 30 WP MM TRIX 1957-05-04 03:00:00 TS 6.98985 155.719 main 1210 1210 PPP______PPP__ WP041957 6.93500 155.743 90 2 7.09252 155.643 9 972 0 0 7.10752 155.643 5 101 975 6.93500 155.743 TC 90 6.93407 155.800 4 90 6.93500 155.743 90 972 300 6 345
1957122N03154 1957 30 WP MM TRIX 1957-05-04 06:00:00 TS 7.26625 155.650 970 tokyo main 1240 1236 OOO______OPO__ jtwc_wp WP041957 7.20000 155.700 90 2 7.40000 155.500 9 970 0 0 0 7.40000 155.500 6 106 970 7.20000 155.700 TC 90 7.19752 155.800 4 90 7.20000 155.700 90 970 300 6 354
1957122N03154 1957 30 WP MM TRIX 1957-05-04 09:00:00 TS 7.55495 155.657 main 1271 1271 PPP______PPP__ WP041957 7.49250 155.742 90 2 7.70748 155.455 9 970 0 0 7.65749 155.462 6 106 969 7.49250 155.742 TC 90 7.48720 155.800 4 90 7.49250 155.742 90 969 300 6 6
1957122N03154 1957 30 WP MM TRIX 1957-05-04 12:00:00 TS 7.85000 155.700 970 tokyo main 1301 1301 OOO______OOO__ jtwc_wp WP041957 7.80000 155.800 90 2 8.00000 155.500 9 970 0 0 0 7.90000 155.500 6 106 968 7.80000 155.800 TC 90 7.80000 155.800 4 90 7.80000 155.800 90 968 300 6 9
1957122N03154 1957 30 WP MM TRIX 1957-05-04 15:00:00 TS 8.12297 155.748 main 1322 1322 PPP______PPP__ WP041957 8.08500 155.808 90 2 8.23503 155.650 9 970 0 0 8.12751 155.585 6 106 967 8.08500 155.808 TC 90 8.12030 155.828 4 97 8.08500 155.808 90 967 330 6 9
1957122N03154 1957 30 WP MM TRIX 1957-05-04 18:00:00 TS 8.42708 155.792 970 tokyo main 1357 1357 OOO______OPO__ jtwc_wp WP041957 8.40000 155.800 90 2 8.50000 155.800 9 970 0 0 0 8.40000 155.700 6 106 966 8.40000 155.800 TC 90 8.46247 155.852 4 105 8.40000 155.800 90 967 360 7 7
1957122N03154 1957 30 WP MM TRIX 1957-05-04 21:00:00 TS 8.80931 155.830 main 1398 1398 PPP______PPP__ WP041957 8.78500 155.815 105 3 8.89247 155.852 9 965 0 0 8.78501 155.830 6 111 960 8.78500 155.815 TC 105 8.82341 155.850 4 112 8.78500 155.815 105 960 330 8 0
1957122N03154 1957 30 WP MM TRIX 1957-05-05 00:00:00 TS 9.21667 155.817 960 tokyo main 1439 1439 OOO______OOO__ jtwc_wp WP041957 9.20000 155.800 120 4 9.30000 155.800 9 960 0 0 0 9.20000 155.900 6 116 955 9.20000 155.800 TC 120 9.20000 155.800 4 120 9.20000 155.800 120 954 300 8 353
1957122N03154 1957 30 WP MM TRIX 1957-05-05 03:00:00 TS 9.59762 155.733 main 1477 1477 PPP______PPP__ WP041957 9.59997 155.737 120 4 9.61500 155.638 9 955 0 0 9.56498 155.845 6 121 951 9.59997 155.737 TC 120 9.60584 155.704 4 120 9.59997 155.737 120 951 300 8 342
1957122N03154 1957 30 WP MM TRIX 1957-05-05 06:00:00 TS 9.97039 155.576 950 tokyo main 1515 1511 OOO______OPO__ jtwc_wp WP041957 10.0000 155.600 120 4 9.90000 155.400 9 950 0 0 0 9.90000 155.700 6 126 948 10.0000 155.600 TC 120 10.0223 155.555 4 120 10.0000 155.600 120 948 300 8 335
1957122N03154 1957 30 WP MM TRIX 1957-05-05 09:00:00 TS 10.3479 155.371 main 1539 1539 PPP______PPP__ WP041957 10.4225 155.395 120 4 10.1925 155.143 9 952 0 0 10.1999 155.545 6 126 950 10.4225 155.395 TC 120 10.4277 155.354 4 120 10.4225 155.395 120 950 330 9 327
1957122N03154 1957 30 WP MM TRIX 1957-05-05 12:00:00 TS 10.7000 155.100 955 tokyo main 1571 1571 OOO______OOO__ jtwc_wp WP041957 10.8000 155.100 120 4 10.5000 154.900 9 955 0 0 0 10.5000 155.300 6 126 952 10.8000 155.100 TC 120 10.8000 155.100 4 120 10.8000 155.100 120 953 360 9 318
1957122N03154 1957 30 WP MM TRIX 1957-05-05 15:00:00 TS 10.9970 154.776 main 1594 1591 PPP______PPP__ WP041957 11.0651 154.707 120 4 10.8499 154.765 9 957 0 0 10.8425 154.938 6 121 955 11.0651 154.707 TC 120 11.0945 154.832 4 120 11.0651 154.707 120 955 360 9 311
1957122N03154 1957 30 WP MM TRIX 1957-05-05 18:00:00 TS 11.2762 154.419 960 tokyo main 1615 1613 OOO______OPO__ jtwc_wp WP041957 11.3000 154.300 120 4 11.2000 154.600 9 960 0 0 0 11.2000 154.500 6 116 958 11.3000 154.300 TC 120 11.3571 154.512 4 120 11.3000 154.300 120 958 360 9 311
1957122N03154 1957 30 WP MM TRIX 1957-05-05 21:00:00 TS 11.5650 154.105 main 1640 1638 PPP______PPP__ WP041957 11.5772 154.030 120 4 11.4997 154.340 9 960 0 0 11.5424 154.065 6 116 958 11.5772 154.030 TC 120 11.6162 154.135 4 120 11.5772 154.030 120 959 360 9 311
1957122N03154 1957 30 WP MM TRIX 1957-05-06 00:00:00 TS 11.8833 153.717 960 tokyo main 1664 1662 OOO______OOO__ jtwc_wp WP041957 11.9000 153.700 120 4 11.8000 153.900 9 960 0 0 0 11.9000 153.600 6 116 959 11.9000 153.700 TC 120 11.9000 153.700 4 120 11.9000 153.700 120 960 360 12 306
1957122N03154 1957 30 WP MM TRIX 1957-05-06 03:00:00 TS 12.2621 153.139 main 1698 1696 PPP______PPP__ WP041957 12.2927 153.130 120 4 12.1356 153.150 9 960 0 0 12.2999 153.107 6 116 959 12.2927 153.130 TC 120 12.2589 153.184 4 120 12.2927 153.130 120 960 360 14 303
1957122N03154 1957 30 WP MM TRIX 1957-05-06 06:00:00 TS 12.6572 152.519 960 tokyo main 1734 1733 OOO______OPO__ jtwc_wp WP041957 12.7000 152.500 120 4 12.5000 152.400 9 960 0 0 0 12.7000 152.600 6 116 960 12.7000 152.500 TC 120 12.6432 152.616 4 120 12.7000 152.500 120 960 360 13 305
1957122N03154 1957 30 WP MM TRIX 1957-05-06 09:00:00 TS 13.0304 152.013 main 1763 1763 PPP______PPP__ WP041957 13.0648 151.977 120 4 12.8920 152.020 9 960 0 0 13.0650 152.085 6 116 962 13.0648 151.977 TC 120 13.0308 152.040 4 120 13.0648 151.977 120 960 330 12 308
1957122N03154 1957 30 WP MM TRIX 1957-05-06 12:00:00 TS 13.3833 151.550 960 tokyo main 1797 1794 OOO______OOO__ jtwc_wp WP041957 13.4000 151.500 120 4 13.3000 151.700 9 960 0 0 0 13.4000 151.600 6 116 964 13.4000 151.500 TC 120 13.4000 151.500 4 120 13.4000 151.500 120 960 300 11 307
1957122N03154 1957 30 WP MM TRIX 1957-05-06 15:00:00 TS 13.7095 151.085 main 1816 1814 PPP______PPP__ WP041957 13.7074 151.027 120 4 13.7227 151.150 9 960 0 0 13.7073 151.192 6 116 961 13.7074 151.027 TC 120 13.7044 151.084 4 120 13.7074 151.027 120 958 330 11 306
1957122N03154 1957 30 WP MM TRIX 1957-05-06 18:00:00 TS 14.0152 150.651 960 tokyo main 1840 1837 OOO______OPO__ jtwc_wp WP041957 14.0000 150.600 120 4 14.1000 150.600 9 960 0 0 0 14.0000 150.800 6 116 958 14.0000 150.600 TC 120 13.9912 150.706 4 120 14.0000 150.600 120 957 360 10 308
1957122N03154 1957 30 WP MM TRIX 1957-05-06 21:00:00 TS 14.2988 150.305 main 1864 1863 PPP______PPP__ WP041957 14.2921 150.287 120 4 14.3496 150.257 9 957 0 0 14.2848 150.387 6 116 957 14.2921 150.287 TC 120 14.2824 150.324 4 120 14.2921 150.287 120 957 360 9 309
1957122N03154 1957 30 WP MM TRIX 1957-05-07 00:00:00 TS 14.6000 149.900 955 tokyo main 1891 1889 OOO______OOO__ jtwc_wp WP041957 14.6000 149.900 120 4 14.6000 149.900 9 955 0 0 0 14.6000 149.900 6 116 957 14.6000 149.900 TC 120 14.6000 149.900 4 120 14.6000 149.900 120 957 360 12 303
1957122N03154 1957 30 WP MM TRIX 1957-05-07 03:00:00 TS 14.9525 149.266 main 1927 1924 PPP______PPP__ WP041957 14.9280 149.215 120 4 14.9701 149.338 9 955 0 0 14.9852 149.265 6 116 956 14.9280 149.215 TC 120 14.9759 149.347 4 120 14.9280 149.215 120 955 390 15 301
1957122N03154 1957 30 WP MM TRIX 1957-05-07 06:00:00 TS 15.3464 148.592 955 tokyo main 1953 1953 OOO______OPO__ jtwc_wp WP041957 15.3000 148.500 120 4 15.4000 148.700 9 955 0 0 0 15.4000 148.600 6 116 956 15.3000 148.500 TC 120 15.3784 148.751 4 120 15.3000 148.500 120 954 420 14 306
1957122N03154 1957 30 WP MM TRIX 1957-05-07 09:00:00 TS 15.7879 148.052 main 2006 2006 PPP______PPP__ WP041957 15.7571 148.020 120 4 15.8650 148.070 9 952 0 0 15.7998 148.027 6 121 953 15.7571 148.020 TC 120 15.7916 148.154 4 120 15.7571 148.020 120 953 420 13 311
1957122N03154 1957 30 WP MM TRIX 1957-05-07 12:00:00 TS 16.2167 147.567 950 tokyo main 2050 2049 OOO______OOO__ jtwc_wp WP041957 16.2000 147.600 120 4 16.3000 147.500 9 950 0 0 0 16.2000 147.500 6 126 951 16.2000 147.600 TC 120 16.2000 147.600 4 120 16.2000 147.600 120 952 420 12 309
1957122N03154 1957 30 WP MM TRIX 1957-05-07 15:00:00 TS 16.5436 147.073 main 2083 2083 PPP______PPP__ WP041957 16.5001 147.077 120 4 16.5997 147.077 9 952 0 0 16.5924 146.985 6 126 951 16.5001 147.077 TC 120 16.5693 147.145 4 120 16.5001 147.077 120 956 390 11 306
1957122N03154 1957 30 WP MM TRIX 1957-05-07 18:00:00 TS 16.8723 146.623 955 tokyo main 2117 2065 OOO______OPO__ jtwc_wp WP041957 16.8000 146.600 120 4 16.9000 146.700 9 955 0 0 0 17.0000 146.500 6 126 952 16.8000 146.600 TC 120 16.9341 146.739 4 120 16.8000 146.600 120 960 360 11 314
1957122N03154 1957 30 WP MM TRIX 1957-05-07 21:00:00 TS 17.3006 146.250 main 2065 2010 PPP______PPP__ WP041957 17.2347 146.292 120 4 17.3350 146.243 9 955 0 0 17.4575 146.020 6 121 954 17.2347 146.292 TC 120 17.3069 146.363 4 120 17.2347 146.292 120 959 330 11 322
1957122N03154 1957 30 WP MM TRIX 1957-05-08 00:00:00 TS 17.7500 145.900 955 tokyo main 1999 1956 OOO______OOO__ jtwc_wp WP041957 17.7000 146.000 120 4 17.8000 145.800 9 955 0 0 0 17.9000 145.600 6 116 957 17.7000 146.000 TC 120 17.7000 146.000 4 120 17.7000 146.000 120 958 300 11 319
1957122N03154 1957 30 WP MM TRIX 1957-05-08 03:00:00 TS 18.1449 145.482 main 1956 1901 PPP______PPP__ WP041957 18.0927 145.550 120 4 18.1925 145.405 9 952 0 0 18.2499 145.270 6 116 957 18.0927 145.550 TC 120 18.1489 145.570 4 120 18.0927 145.550 120 953 300 11 316
1957122N03154 1957 30 WP MM TRIX 1957-05-08 06:00:00 TS 18.5526 145.092 950 tokyo main 1891 1839 OOO______OPO__ jtwc_wp WP041957 18.5000 145.100 120 4 18.6000 145.100 9 950 0 0 0 18.6000 145.000 6 116 957 18.5000 145.100 TC 120 18.6154 145.154 4 120 18.5000 145.100 120 949 300 11 324
1957122N03154 1957 30 WP MM TRIX 1957-05-08 09:00:00 TS 19.0435 144.784 main 1839 1780 PPP______PPP__ WP041957 19.0074 144.755 120 4 19.1148 144.942 9 952 0 0 19.0500 144.713 6 116 957 19.0074 144.755 TC 120 19.0740 144.786 4 120 19.0074 144.755 120 947 330 11 332
1957122N03154 1957 30 WP MM TRIX 1957-05-08 12:00:00 TS 19.5167 144.550 955 tokyo main 1780 1730 OOO______OOO__ jtwc_wp WP041957 19.5000 144.500 120 4 19.6000 144.800 9 955 0 0 0 19.5000 144.500 6 116 957 19.5000 144.500 TC 120 19.5000 144.500 4 120 19.5000 144.500 120 945 360 9 334
1957122N03154 1957 30 WP MM TRIX 1957-05-08 15:00:00 TS 19.8883 144.352 main 1730 1691 PPP______PPP__ WP041957 19.8799 144.305 120 4 19.9377 144.478 9 955 0 0 19.8799 144.420 6 116 957 19.8799 144.305 TC 120 19.8726 144.301 4 117 19.8799 144.305 120 950 330 8 336
1957122N03154 1957 30 WP MM TRIX 1957-05-08 18:00:00 TS 20.2016 144.232 955 tokyo main 1691 1660 OOO______OPO__ jtwc_wp WP041957 20.2000 144.200 120 4 20.2000 144.200 9 955 0 0 0 20.2000 144.400 6 116 957 20.2000 144.200 TC 120 20.2093 144.192 4 115 20.2000 144.200 120 956 300 6 346
1957122N03154 1957 30 WP MM TRIX 1957-05-08 21:00:00 TS 20.4910 144.196 main 1660 1628 PPP______PPP__ WP041957 20.5075 144.177 115 4 20.4499 144.140 9 957 0 0 20.4575 144.343 6 116 957 20.5075 144.177 TC 115 20.5165 144.161 4 112 20.5075 144.177 115 956 300 6 0
1957122N03154 1957 30 WP MM TRIX 1957-05-09 00:00:00 TS 20.7667 144.217 960 tokyo main 1628 1596 OOO______OOO__ jtwc_wp WP041957 20.8000 144.200 110 3 20.7000 144.200 9 960 0 0 0 20.7000 144.300 6 116 957 20.8000 144.200 TC 110 20.8000 144.200 4 110 20.8000 144.200 110 957 300 6 0
1957122N03154 1957 30 WP MM TRIX 1957-05-09 03:00:00 TS 21.0759 144.206 main 1596 1575 PPP______PPP__ WP041957 21.1149 144.155 110 3 21.0074 144.263 9 960 0 0 21.0075 144.263 6 111 958 21.1149 144.155 TC 110 21.0956 144.244 4 110 21.1149 144.155 110 958 330 6 6
1957122N03154 1957 30 WP MM TRIX 1957-05-09 06:00:00 TS 21.3612 144.276 960 tokyo main 1567 1550 OOO______OPO__ jtwc_wp WP041957 21.4000 144.200 110 3 21.3000 144.400 9 960 0 0 0 21.3000 144.300 6 106 960 21.4000 144.200 TC 110 21.3669 144.357 4 110 21.4000 144.200 110 960 360 6 28
1957122N03154 1957 30 WP MM TRIX 1957-05-09 09:00:00 TS 21.5875 144.499 main 1550 1538 PPP______PPP__ WP041957 21.6226 144.447 110 3 21.5301 144.642 9 962 0 0 21.5225 144.470 6 101 961 21.6226 144.447 TC 110 21.6048 144.541 4 110 21.6226 144.447 110 962 360 6 50
1957122N03154 1957 30 WP MM TRIX 1957-05-09 12:00:00 TS 21.7667 144.800 965 tokyo main 1538 1530 OOO______OOO__ jtwc_wp WP041957 21.8000 144.800 110 3 21.7000 144.900 9 965 0 0 0 21.7000 144.700 5 97 963 21.8000 144.800 TC 110 21.8000 144.800 4 110 21.8000 144.800 110 965 360 6 57
1957122N03154 1957 30 WP MM TRIX 1957-05-09 15:00:00 TS 21.9241 145.063 main 1536 1526 PPP______PPP__ WP041957 21.9724 145.128 110 3 21.8221 144.998 9 965 0 0 21.8498 144.863 5 97 963 21.9724 145.128 TC 110 21.9558 145.136 4 105 21.9724 145.128 110 964 360 6 63
1957122N03154 1957 30 WP MM TRIX 1957-05-09 18:00:00 TS 22.0447 145.390 965 tokyo main 1536 1525 OOO______OPO__ jtwc_wp WP041957 22.1000 145.500 110 3 21.9000 145.200 9 965 0 0 0 22.0000 145.100 5 97 963 22.1000 145.500 TC 110 22.0682 145.540 4 100 22.1000 145.500 110 963 360 8 74
1957122N03154 1957 30 WP MM TRIX 1957-05-09 21:00:00 TS 22.1296 145.856 main 1543 1536 PPP______PPP__ WP041957 22.1652 145.958 100 3 21.9207 145.778 9 970 0 0 22.2151 145.512 5 87 967 22.1652 145.958 TC 100 22.1464 145.974 4 95 22.1652 145.958 100 968 360 9 80
1957122N03154 1957 30 WP MM TRIX 1957-05-10 00:00:00 TS 22.2000 146.333 975 tokyo main 1548 1545 OOO______OOO__ jtwc_wp WP041957 22.2000 146.400 90 2 22.0000 146.400 9 975 0 0 0 22.4000 146.000 4 77 971 22.2000 146.400 TC 90 22.2000 146.400 4 90 22.2000 146.400 90 974 360 8 77
1957122N03154 1957 30 WP MM TRIX 1957-05-10 03:00:00 TS 22.3039 146.679 main 1553 1552 PPP______PPP__ WP041957 22.2572 146.708 90 2 22.3071 146.745 9 975 0 0 22.4950 146.465 4 77 972 22.2572 146.708 TC 90 22.2499 146.744 4 90 22.2572 146.708 90 975 360 6 74
1957122N03154 1957 30 WP MM TRIX 1957-05-10 06:00:00 TS 22.3798 146.996 975 tokyo main 1556 1556 OOO______OPO__ jtwc_wp WP041957 22.3000 147.000 90 2 22.6000 147.000 9 975 0 0 0 22.5000 146.900 4 77 974 22.3000 147.000 TC 90 22.2790 147.078 4 90 22.3000 147.000 90 976 360 6 82
1957122N03154 1957 30 WP MM TRIX 1957-05-10 09:00:00 TS 22.3880 147.355 main 1573 1573 PPP______PPP__ WP041957 22.3075 147.385 90 2 22.6824 147.293 9 975 0 0 22.4298 147.258 4 77 974 22.3075 147.385 TC 90 22.2936 147.422 4 90 22.3075 147.385 90 976 360 7 93
1957122N03154 1957 30 WP MM TRIX 1957-05-10 12:00:00 TS 22.3500 147.733 975 tokyo main 1587 1597 OOO______OOO__ jtwc_wp WP041957 22.3000 147.800 90 2 22.6000 147.600 9 975 0 0 0 22.3000 147.600 4 77 974 22.3000 147.800 TC 90 22.3000 147.800 4 90 22.3000 147.800 90 976 360 7 98
1957122N03154 1957 30 WP MM TRIX 1957-05-10 15:00:00 TS 22.2876 148.108 main 1616 1616 PPP______PPP__ WP041957 22.2997 148.178 90 2 22.3647 147.905 9 975 0 0 22.1423 147.970 4 77 974 22.2997 148.178 TC 90 22.3195 148.243 4 88 22.2997 148.178 90 975 330 8 100
1957122N03154 1957 30 WP MM TRIX 1957-05-10 18:00:00 TS 22.2217 148.537 975 tokyo main 1645 1645 OOO______OPO__ jtwc_wp WP041957 22.3000 148.600 90 2 22.1000 148.300 9 975 0 0 0 22.0000 148.400 4 77 974 22.3000 148.600 TC 90 22.3302 148.720 4 87 22.3000 148.600 90 975 300 9 96
1957122N03154 1957 30 WP MM TRIX 1957-05-10 21:00:00 TS 22.1948 149.074 main 1675 1675 PPP______PPP__ WP041957 22.3151 149.135 87 2 21.9629 148.885 9 975 0 0 21.9352 148.942 4 77 974 22.3151 149.135 TC 87 22.3257 149.212 4 86 22.3151 149.135 87 974 330 10 93
1957122N03154 1957 30 WP MM TRIX 1957-05-11 00:00:00 TS 22.1667 149.633 975 tokyo main 1702 1702 OOO______OOO__ jtwc_wp WP041957 22.3000 149.700 85 2 21.9000 149.500 9 975 0 0 0 21.9000 149.500 4 77 974 22.3000 149.700 TC 85 22.3000 149.700 4 85 22.3000 149.700 85 974 360 10 96
1957122N03154 1957 30 WP MM TRIX 1957-05-11 03:00:00 TS 22.0998 150.131 main 1739 1739 PPP______PPP__ WP041957 22.2074 150.223 85 2 21.8847 149.980 9 972 0 0 21.8497 149.965 4 77 973 22.2074 150.223 TC 85 22.2423 150.174 4 85 22.2074 150.223 85 973 360 9 99
1957122N03154 1957 30 WP MM TRIX 1957-05-11 06:00:00 TS 22.0275 150.590 970 tokyo main 1775 1775 OOO______OPO__ jtwc_wp WP041957 22.1000 150.700 85 2 21.9000 150.400 9 970 0 0 0 21.8000 150.400 4 77 973 22.1000 150.700 TC 85 22.1648 150.638 4 85 22.1000 150.700 85 973 360 8 99
1957122N03154 1957 30 WP MM TRIX 1957-05-11 09:00:00 TS 21.9761 151.023 main 1797 1797 PPP______PPP__ WP041957 22.0424 151.130 85 2 21.9073 150.800 9 970 0 0 21.7425 150.865 4 77 972 22.0424 151.130 TC 85 22.0799 151.083 4 85 22.0424 151.130 85 972 360 8 97
1957122N03154 1957 30 WP MM TRIX 1957-05-11 12:00:00 TS 21.9333 151.417 970 tokyo main 1829 1829 OOO______OOO__ jtwc_wp WP041957 22.0000 151.500 85 2 21.9000 151.200 9 970 0 0 0 21.7000 151.300 4 77 971 22.0000 151.500 TC 85 22.0000 151.500 4 85 22.0000 151.500 85 971 360 7 98
1957122N03154 1957 30 WP MM TRIX 1957-05-11 15:00:00 TS 21.8809 151.755 main 1851 1851 PPP______PPP__ WP041957 21.9498 151.800 85 2 21.8349 151.643 9 970 0 0 21.6922 151.650 4 77 970 21.9498 151.800 TC 85 21.9090 151.839 4 86 21.9498 151.800 85 970 390 6 99
1957122N03154 1957 30 WP MM TRIX 1957-05-11 18:00:00 TS 21.8384 152.093 970 tokyo main 1878 1878 OOO______OPO__ jtwc_wp WP041957 21.9000 152.100 85 2 21.8000 152.100 9 970 0 0 0 21.7000 152.000 4 77 970 21.9000 152.100 TC 85 21.8306 152.156 4 87 21.9000 152.100 85 969 420 7 97
1957122N03154 1957 30 WP MM TRIX 1957-05-11 21:00:00 TS 21.8038 152.462 main 1902 1902 PPP______PPP__ WP041957 21.8272 152.448 87 2 21.8772 152.527 9 970 0 0 21.6772 152.405 4 82 969 21.8272 152.448 TC 87 21.7870 152.495 4 88 21.8272 152.448 87 968 390 8 92
1957122N03154 1957 30 WP MM TRIX 1957-05-12 00:00:00 TS 21.8167 152.917 970 tokyo main 1926 1926 OOO______OOO__ jtwc_wp WP041957 21.8000 152.900 90 2 22.0000 153.000 9 970 0 0 0 21.7000 152.900 5 87 968 21.8000 152.900 TC 90 21.8000 152.900 4 90 21.8000 152.900 90 968 360 10 85
1957122N03154 1957 30 WP MM TRIX 1957-05-12 03:00:00 TS 21.8926 153.523 main 1954 1954 PPP______PPP__ WP041957 21.8628 153.527 90 2 22.0851 153.585 9 970 0 0 21.8051 153.520 5 92 967 21.8628 153.527 TC 90 21.8772 153.448 4 90 21.8628 153.527 90 967 360 12 79
1957122N03154 1957 30 WP MM TRIX 1957-05-12 06:00:00 TS 22.0352 154.177 970 tokyo main 1991 1982 OOO______OPO__ jtwc_wp WP041957 22.0000 154.200 90 2 22.2000 154.200 9 970 0 0 0 22.0000 154.200 5 97 966 22.0000 154.200 TC 90 22.0113 154.062 4 90 22.0000 154.200 90 966 360 12 74
1957122N03154 1957 30 WP MM TRIX 1957-05-12 09:00:00 TS 22.2318 154.771 main 2013 2005 PPP______PPP__ WP041957 22.1697 154.765 90 2 22.3923 154.765 9 970 0 0 22.3000 154.872 5 97 967 22.1697 154.765 TC 90 22.1896 154.695 4 90 22.1697 154.765 90 967 360 12 68
1957122N03154 1957 30 WP MM TRIX 1957-05-12 12:00:00 TS 22.4667 155.333 970 tokyo main 2022 2022 OOO______OOO__ jtwc_wp WP041957 22.4000 155.300 90 2 22.6000 155.300 9 970 0 0 0 22.6000 155.500 5 97 968 22.4000 155.300 TC 90 22.4000 155.300 4 90 22.4000 155.300 90 968 360 11 65
1957122N03154 1957 30 WP MM TRIX 1957-05-12 15:00:00 TS 22.7042 155.883 main 2048 2047 PPP______PPP__ WP041957 22.7000 155.872 90 2 22.7347 155.801 9 970 0 0 22.7573 156.046 5 97 969 22.7000 155.872 TC 90 22.6329 155.835 4 87 22.7000 155.872 90 969 360 11 64
1957122N03154 1957 30 WP MM TRIX 1957-05-12 18:00:00 TS 22.9486 156.389 970 tokyo main 2066 2058 OOO______OPO__ jtwc_wp WP041957 23.0000 156.400 90 2 22.9000 156.300 9 970 0 0 0 22.9000 156.500 5 97 970 23.0000 156.400 TC 90 22.8919 156.332 4 85 23.0000 156.400 90 970 360 10 61
1957122N03154 1957 30 WP MM TRIX 1957-05-12 21:00:00 TS 23.1941 156.845 main 2070 2070 PPP______PPP__ WP041957 23.2223 156.838 85 2 23.1928 156.887 9 972 0 0 23.1498 156.880 5 97 971 23.2223 156.838 TC 85 23.1550 156.788 4 82 23.2223 156.838 85 971 360 9 59
1957122N03154 1957 30 WP MM TRIX 1957-05-13 00:00:00 TS 23.4167 157.233 975 tokyo main 2083 2082 OOO______OOO__ jtwc_wp WP041957 23.4000 157.200 80 1 23.5000 157.400 9 975 0 0 0 23.4000 157.200 5 97 972 23.4000 157.200 TC 80 23.4000 157.200 4 80 23.4000 157.200 80 973 360 8 59
1957122N03154 1957 30 WP MM TRIX 1957-05-13 03:00:00 TS 23.5854 157.545 main 2089 2089 PPP______PPP__ WP041957 23.5498 157.508 80 1 23.7296 157.688 9 975 0 0 23.5498 157.500 5 92 973 23.5498 157.508 TC 80 23.5834 157.557 4 80 23.5498 157.508 80 974 360 6 59
1957122N03154 1957 30 WP MM TRIX 1957-05-13 06:00:00 TS 23.7415 157.829 975 tokyo main 2103 2096 OOO______OPO__ jtwc_wp WP041957 23.7000 157.800 80 1 23.9000 157.900 9 975 0 0 0 23.7000 157.800 5 87 975 23.7000 157.800 TC 80 23.7488 157.874 4 80 23.7000 157.800 80 975 360 7 60
1957122N03154 1957 30 WP MM TRIX 1957-05-13 09:00:00 TS 23.9149 158.157 main 2118 2110 PPP______PPP__ WP041957 23.8850 158.150 80 1 23.9999 158.178 9 975 0 0 23.9199 158.135 5 87 975 23.8850 158.150 TC 80 23.9148 158.179 4 80 23.8850 158.150 80 974 330 7 59
1957122N03154 1957 30 WP MM TRIX 1957-05-13 12:00:00 TS 24.1167 158.500 975 tokyo main 2126 2126 OOO______OOO__ jtwc_wp WP041957 24.1000 158.500 80 1 24.1000 158.500 9 975 0 0 0 24.2000 158.500 5 87 975 24.1000 158.500 TC 80 24.1000 158.500 4 80 24.1000 158.500 80 974 300 8 54
1957122N03154 1957 30 WP MM TRIX 1957-05-13 15:00:00 TS 24.3563 158.821 main 2127 2127 PPP______PPP__ WP041957 24.3422 158.778 80 1 24.2700 158.885 9 975 0 0 24.5424 158.885 5 87 975 24.3422 158.778 TC 80 24.2987 158.824 4 78 24.3422 158.778 80 973 300 8 51
1957122N03154 1957 30 WP MM TRIX 1957-05-13 18:00:00 TS 24.6205 159.179 975 tokyo main 2143 2136 OOO______OPO__ jtwc_wp WP041957 24.6000 159.100 80 1 24.5000 159.300 9 975 0 0 0 24.9000 159.300 5 87 975 24.6000 159.100 TC 80 24.5228 159.176 4 77 24.6000 159.100 80 973 300 9 54
1957122N03154 1957 30 WP MM TRIX 1957-05-13 21:00:00 TS 24.8663 159.587 main 2153 2153 PPP______PPP__ WP041957 24.8194 159.518 77 1 24.7467 159.634 9 977 0 0 25.2074 159.743 5 82 977 24.8194 159.518 TC 77 24.7856 159.590 4 76 24.8194 159.518 77 976 270 10 57
1957122N03154 1957 30 WP MM TRIX 1957-05-14 00:00:00 TS 25.1667 160.117 980 tokyo main 2173 2173 OOO______OOO__ jtwc_wp WP041957 25.1000 160.100 75 1 25.1000 160.100 9 980 0 0 0 25.5000 160.200 4 77 980 25.1000 160.100 TC 75 25.1000 160.100 4 75 25.1000 160.100 75 979 240 13 58
1957122N03154 1957 30 WP MM TRIX 1957-05-14 03:00:00 TS 25.5788 160.835 main 2203 2203 PPP______PPP__ WP041957 25.5283 160.927 75 1 25.6359 160.904 9 985 0 0 25.7765 160.584 4 72 984 25.5283 160.927 TC 75 25.4754 160.741 4 75 25.5283 160.927 75 982 210 16 58
1957122N03154 1957 30 WP MM TRIX 1957-05-14 06:00:00 TS 26.0331 161.630 990 tokyo main 2243 2243 OOO______OPO__ jtwc_wp WP041957 26.0000 161.800 75 1 26.2000 161.800 9 990 0 0 0 26.1000 161.100 4 68 988 26.0000 161.800 TC 75 25.8983 161.479 4 75 26.0000 161.800 75 986 180 16 57
1957122N03154 1957 30 WP MM TRIX 1957-05-14 09:00:00 TS 26.4500 162.343 main 2271 2271 PPP______PPP__ WP041957 26.3988 162.451 75 1 26.6137 162.487 9 990 0 0 26.5431 161.939 4 68 988 26.3988 162.451 TC 75 26.3469 162.279 4 75 26.3988 162.451 75 986 180 15 57
1957122N03154 1957 30 WP MM TRIX 1957-05-14 12:00:00 TS 26.8667 163.083 990 tokyo main 2316 2316 OOO______OOO__ jtwc_wp WP041957 26.8000 163.100 75 1 27.0000 163.200 9 990 0 0 0 27.0000 162.900 4 68 989 26.8000 163.100 TC 75 26.8000 163.100 4 75 26.8000 163.100 75 987 180 16 59
1957122N03154 1957 30 WP MM TRIX 1957-05-14 15:00:00 TS 27.2864 163.921 main 2362 2362 PPP______PPP__ WP041957 27.2503 163.935 75 1 27.4582 164.149 9 990 0 0 27.3492 163.751 4 68 989 27.2503 163.935 TC 75 27.1600 163.821 4 72 27.2503 163.935 75 987 180 17 61
1957122N03154 1957 30 WP MM TRIX 1957-05-14 18:00:00 TS 27.7052 164.777 990 tokyo main 2395 2390 OOO______OPO__ jtwc_wp WP041957 27.7000 164.800 75 1 27.9000 165.100 9 990 0 0 0 27.7000 164.600 4 68 989 27.7000 164.800 TC 75 27.5311 164.564 4 70 27.7000 164.800 75 988 180 16 60
1957122N03154 1957 30 WP MM TRIX 1957-05-14 21:00:00 TS 28.0913 165.520 main 2391 2387 PPP______PPP__ WP041957 28.0527 165.486 70 1 28.2636 165.816 9 990 0 0 28.1641 165.470 4 68 989 28.0527 165.486 TC 70 27.9619 165.374 4 67 28.0527 165.486 70 988 150 16 59
1957122N03154 1957 30 WP MM TRIX 1957-05-15 00:00:00 TS 28.5333 166.350 990 tokyo main 2395 2391 OOO______OOO__ jtwc_wp WP041957 28.5000 166.300 65 1 28.6000 166.500 9 990 0 0 0 28.6000 166.400 4 68 990 28.5000 166.300 TC 65 28.5000 166.300 4 65 28.5000 166.300 65 988 120 20 60
1957122N03154 1957 30 WP MM TRIX 1957-05-15 03:00:00 TS 29.0754 167.437 main 2398 2398 PPP______PPP__ WP041957 29.1838 167.532 65 1 28.9337 167.276 9 990 0 0 28.8643 167.414 4 68 990 29.1838 167.532 TC 65 29.1028 167.335 4 65 29.1838 167.532 65 989 120 23 60
1957122N03154 1957 30 WP MM TRIX 1957-05-15 06:00:00 TS 29.7037 168.651 990 tokyo main 2415 2411 OOO______OPO__ jtwc_wp WP041957 30.0000 168.900 65 1 29.3000 168.200 9 990 0 0 0 29.1000 168.500 4 68 990 30.0000 168.900 TC 65 29.8224 168.506 4 65 30.0000 168.900 65 990 120 24 58
1957122N03154 1957 30 WP MM TRIX 1957-05-15 09:00:00 TS 30.3503 169.814 main 2417 2417 PPP______PPP__ WP041957 30.7630 170.026 65 1 29.7350 169.340 9 990 0 0 29.3971 169.644 4 63 991 30.7630 170.026 TC 65 30.6807 169.822 4 65 30.7630 170.026 65 990 120 26 56
1957122N03154 1957 30 WP MM TRIX 1957-05-15 12:00:00 TS 31.1333 171.100 990 tokyo main 2436 2432 OOO______OOO__ jtwc_wp WP041957 31.7000 171.300 65 1 30.2000 170.600 9 990 0 0 0 29.8000 170.800 3 58 993 31.7000 171.300 TC 65 31.7000 171.300 4 65 31.7000 171.300 65 991 120 30 54
1957122N03154 1957 30 WP MM TRIX 1957-05-15 15:00:00 TS 32.0891 172.632 main 2436 2421 PPP______PPP__ WP041957 32.9261 173.045 65 1 30.5662 171.832 9 992 0 0 30.3005 171.874 3 53 995 32.9261 173.045 TC 65 32.8896 172.953 4 58 32.9261 173.045 65 991 120 33 54
1957122N03154 1957 30 WP MM TRIX 1957-05-15 18:00:00 TS 33.1056 174.260 995 tokyo main 2423 2399 OOO______OPO__ jtwc_wp WP041957 34.3000 175.000 65 1 31.1000 173.100 9 995 0 0 0 31.0000 173.000 3 48 997 34.3000 175.000 TC 65 34.2074 174.772 4 52 34.3000 175.000 65 992 120 35 52
1957122N03154 1957 30 WP MM TRIX 1957-05-15 21:00:00 TS 34.2300 175.947 main 2399 2203 PPP______PPP__ WP041957 35.7748 177.121 52 0 32.0230 174.398 9 997 0 0 31.9461 174.276 3 43 999 35.7748 177.121 TC 52 35.5967 176.731 4 46 35.6659 176.912 52 992 90 37 49
1957122N03154 1957 30 WP MM TRIX 1957-05-16 00:00:00 TS 35.5187 177.656 1000 tokyo main 2199 2074 OOO______OOO__ jtwc_wp WP041957 37.0000 178.800 40 0 33.1000 175.800 2 1000 0 0 0 33.0000 175.700 2 38 1001 37.0000 178.800 TC 40 37.0000 178.800 2 40 37.0000 178.800 40 993 60 31 46
1957122N03154 1957 30 WP MM TRIX 1957-05-16 03:00:00 TS 36.4024 178.684 main 2071 1957 PPP______P____ WP041957 37.5843 179.374 40 0 34.0924 177.349 2 1002 0 0 33.9845 177.256 2 33 1003 37.5843 179.374 TC 40 2 23 35
1957122N03154 1957 30 WP MM TRIX 1957-05-16 06:00:00 TS 37.3900 179.310 1004 tokyo main 1947 1815 OOO______O____ jtwc_wp WP041957 38.0000 179.400 40 0 35.0000 179.000 2 1004 0 0 0 34.9000 178.900 1 29 1005 38.0000 179.400 TC 40 2 24 17
1957122N03154 1957 30 WP MM TRIX 1957-05-16 09:00:00 TS 38.7124 179.573 main 1805 1721 P________P____ WP041957 38.7124 179.573 37 0 2 0 0 1 38.7124 179.573 TC 37 2 21 8
1957122N03154 1957 30 WP MM TRIX 1957-05-16 12:00:00 TS 39.5000 179.700 main 1721 1651 O________O____ jtwc_wp WP041957 39.5000 179.700 35 0 39.5000 179.700 TC 35 16 4
1957122N03154 1957 30 WP MM TRIX 1957-05-16 15:00:00 TS 40.2860 179.726 main 1642 1561 P________P____ WP041957 40.2860 179.726 32 -1 40.2860 179.726 TC 32 15 9
1957122N03154 1957 30 EP CP TRIX 1957-05-16 18:00:00 TS 41.0000 180.000 main 1561 1481 O________O____ jtwc_wp WP041957 41.0000 180.000 30 -1 41.0000 180.000 TC 30 15 33
1957122N03154 1957 30 EP CP TRIX 1957-05-16 21:00:00 TS 41.5539 180.825 main 1471 1390 P________P____ WP041957 41.5539 -179.175 30 -1 41.5539 -179.175 TC 30 18 56
1957122N03154 1957 30 EP CP TRIX 1957-05-17 00:00:00 TS 42.0000 182.000 main 1386 O________O____ jtwc_wp WP041957 42.0000 -178.000 30 -1 42.0000 182.000 TC 30 20 63

デジタル台風データ・検索

IBTrACS Databaseについて

本データベースは、米国NOAAが公開する1842年以降の世界の熱帯低気圧のベストトラックデータアーカイブInternational Best Track Archive for Climate Stewardship (IBTrACS)を、ウェブで閲覧しやすい形式に変換したものです。

最終更新日:2021-11-26